Time;durP1;ratioP1;P1;durP2;ratioP2;P2;SDS_P1;SDS_P2;PMS_P1;PMS_P2;Temp;Humidity;BMP_temperature;BMP_pressure;BME280_temperature;BME280_humidity;BME280_pressure;Samples;Min_cycle;Max_cycle;Signal;HPM_P1;HPM_P2
2023/07/26 00:01:36;;;;;;;19.92;7.43;;;;;;;29.45;26.08;92835.63;5049113;28;20025;-75
2023/07/26 00:04:02;;;;;;;22.08;6.50;;;;;;;29.37;25.58;92805.06;5047566;28;20047;-77
2023/07/26 00:06:30;;;;;;;15.98;6.22;;;;;;;29.43;25.90;92838.06;5047112;28;20510;-75
2023/07/26 00:08:56;;;;;;;19.58;6.72;;;;;;;29.44;24.44;92820.41;5045584;28;20494;-75
2023/07/26 00:11:22;;;;;;;25.77;6.78;;;;;;;29.44;24.97;92836.84;5050056;28;20051;-74
2023/07/26 00:13:48;;;;;;;23.48;6.13;;;;;;;29.43;25.12;92810.69;5049219;28;20037;-76
2023/07/26 00:16:13;;;;;;;20.05;6.22;;;;;;;29.64;24.61;92836.38;5037671;28;20033;-78
2023/07/26 00:18:40;;;;;;;14.55;6.05;;;;;;;29.64;24.89;92842.63;5047864;28;20064;-76
2023/07/26 00:21:06;;;;;;;16.38;6.00;;;;;;;29.44;24.98;92804.00;5048065;28;20037;-76
2023/07/26 00:23:32;;;;;;;15.95;5.60;;;;;;;29.58;25.53;92830.75;5042868;28;20487;-75
2023/07/26 00:25:57;;;;;;;16.90;5.15;;;;;;;29.58;25.80;92828.00;5044940;28;20052;-75
2023/07/26 00:28:23;;;;;;;32.85;7.38;;;;;;;29.58;24.36;92830.75;5046927;28;20048;-76
2023/07/26 00:30:49;;;;;;;20.40;6.20;;;;;;;29.59;25.22;92802.16;5044697;28;20077;-75
2023/07/26 00:33:15;;;;;;;19.10;6.15;;;;;;;29.65;24.99;92822.25;5047415;28;20044;-75
2023/07/26 00:35:42;;;;;;;18.35;6.07;;;;;;;29.65;25.99;92826.97;5046185;28;20037;-74
2023/07/26 00:38:08;;;;;;;18.42;7.65;;;;;;;29.71;27.95;92820.44;5047830;28;20028;-74
2023/07/26 00:40:33;;;;;;;15.43;6.60;;;;;;;29.75;29.38;92829.25;5044246;28;20106;-75
2023/07/26 00:42:59;;;;;;;14.27;7.10;;;;;;;29.62;30.99;92793.03;5054848;28;20570;-75
2023/07/26 00:45:26;;;;;;;14.10;6.97;;;;;;;29.51;31.04;92811.91;5046534;28;20045;-74
2023/07/26 00:47:52;;;;;;;16.80;6.55;;;;;;;29.46;30.76;92834.44;5046130;28;20454;-72
2023/07/26 00:50:19;;;;;;;15.30;6.63;;;;;;;29.05;31.80;92800.16;5045637;28;20021;-73
2023/07/26 00:52:45;;;;;;;22.95;6.97;;;;;;;29.25;31.38;92813.41;5044224;28;20045;-73
2023/07/26 00:55:12;;;;;;;20.67;7.45;;;;;;;29.26;26.96;92795.78;5044782;28;20045;-74
2023/07/26 00:57:38;;;;;;;14.10;6.10;;;;;;;29.15;29.23;92811.88;5046579;28;20041;-72
2023/07/26 01:00:04;;;;;;;19.63;7.53;;;;;;;28.90;30.38;92791.78;5046301;28;20645;-75
2023/07/26 01:02:30;;;;;;;17.15;7.03;;;;;;;29.13;30.29;92798.66;5046757;28;20740;-76
2023/07/26 01:04:55;;;;;;;12.98;6.72;;;;;;;29.19;30.77;92804.28;5045599;28;20506;-73
2023/07/26 01:07:27;;;;;;;15.90;6.80;;;;;;;29.23;30.89;92813.91;5039872;28;20148;-75
2023/07/26 01:10:16;;;;;;;14.10;6.60;;;;;;;28.89;29.76;92773.81;5044377;28;20076;-77
2023/07/26 01:12:54;;;;;;;16.70;6.93;;;;;;;28.91;28.09;92817.16;5045959;28;20041;-76
2023/07/26 01:15:25;;;;;;;18.20;7.93;;;;;;;28.90;26.92;92808.19;5046467;28;20056;-76
2023/07/26 01:18:10;;;;;;;20.98;7.32;;;;;;;28.97;25.90;92807.16;5053988;28;20530;-75
2023/07/26 01:20:35;;;;;;;18.17;7.68;;;;;;;29.02;25.90;92788.16;5047986;28;20074;-73
2023/07/26 01:23:00;;;;;;;17.38;7.25;;;;;;;29.08;26.42;92802.75;5042476;28;20029;-75
2023/07/26 01:25:26;;;;;;;20.40;7.25;;;;;;;29.09;28.50;92798.00;5046897;28;20147;-75
2023/07/26 01:27:51;;;;;;;18.58;6.15;;;;;;;29.07;30.26;92779.34;5044575;28;20033;-76
2023/07/26 01:30:17;;;;;;;19.05;7.90;;;;;;;28.95;32.06;92774.75;5043641;28;20506;-75
2023/07/26 01:32:44;;;;;;;13.55;6.43;;;;;;;29.01;32.62;92807.75;5045396;28;20430;-75
2023/07/26 01:35:10;;;;;;;16.80;7.20;;;;;;;28.94;33.33;92775.97;5045635;28;20112;-75
2023/07/26 01:37:37;;;;;;;13.45;6.90;;;;;;;28.77;33.25;92799.34;5043801;28;20055;-75
2023/07/26 01:40:05;;;;;;;17.90;7.72;;;;;;;28.59;28.05;92771.94;5046896;28;20529;-75
2023/07/26 01:42:31;;;;;;;16.65;7.35;;;;;;;28.52;30.68;92780.41;5043581;28;20044;-75
2023/07/26 01:45:04;;;;;;;12.40;7.53;;;;;;;28.45;29.92;92770.53;5044979;28;20049;-74
2023/07/26 01:47:29;;;;;;;17.55;6.88;;;;;;;28.55;29.53;92765.84;5045855;28;20064;-76
2023/07/26 01:49:56;;;;;;;19.27;8.13;;;;;;;28.54;29.69;92761.59;5052688;28;20483;-74
2023/07/26 01:52:22;;;;;;;20.00;7.93;;;;;;;28.50;29.20;92755.53;5045520;28;20044;-74
2023/07/26 01:54:47;;;;;;;12.70;7.28;;;;;;;28.58;29.11;92771.19;5040222;28;20033;-74
2023/07/26 01:57:13;;;;;;;18.60;7.05;;;;;;;28.52;28.98;92755.81;5047625;28;20029;-74
2023/07/26 01:59:38;;;;;;;14.15;6.63;;;;;;;28.70;28.99;92766.03;5044753;28;20036;-76
2023/07/26 02:02:04;;;;;;;26.85;7.38;;;;;;;28.71;28.57;92757.38;5047346;28;20025;-75
2023/07/26 02:04:29;;;;;;;12.10;6.15;;;;;;;28.71;28.12;92768.34;5043291;28;20037;-76
2023/07/26 02:06:54;;;;;;;16.60;7.80;;;;;;;28.77;28.82;92752.09;5051511;28;20033;-74
2023/07/26 02:09:20;;;;;;;20.30;7.07;;;;;;;28.75;28.08;92747.06;5047086;28;20041;-75
2023/07/26 02:11:45;;;;;;;27.95;7.38;;;;;;;28.74;28.30;92753.78;5046056;28;20071;-75
2023/07/26 02:14:11;;;;;;;14.10;6.95;;;;;;;28.74;28.34;92734.63;5046775;28;20100;-76
2023/07/26 02:16:36;;;;;;;19.35;7.63;;;;;;;28.86;28.13;92738.41;5047197;28;20055;-75
2023/07/26 02:19:01;;;;;;;20.40;7.47;;;;;;;28.76;28.49;92737.63;5044114;28;20272;-75
2023/07/26 02:21:27;;;;;;;18.92;6.97;;;;;;;28.73;27.59;92743.28;5043843;28;20037;-75
2023/07/26 02:23:52;;;;;;;17.45;8.35;;;;;;;28.76;27.91;92734.16;5046693;28;20032;-76
2023/07/26 02:26:18;;;;;;;22.38;6.80;;;;;;;28.81;27.41;92736.28;5050664;28;20024;-75
2023/07/26 02:28:43;;;;;;;19.67;6.97;;;;;;;28.89;28.12;92746.47;5044490;28;20037;-75
2023/07/26 02:31:08;;;;;;;26.17;7.10;;;;;;;28.83;27.59;92748.31;5046420;28;20519;-76
2023/07/26 02:33:34;;;;;;;23.67;7.85;;;;;;;28.94;27.18;92753.34;5043474;28;20067;-75
2023/07/26 02:35:59;;;;;;;21.20;7.25;;;;;;;28.91;25.95;92730.34;5044294;28;20752;-75
2023/07/26 02:38:25;;;;;;;16.30;8.15;;;;;;;28.91;27.96;92752.25;5044124;28;20036;-75
2023/07/26 02:40:51;;;;;;;20.60;6.78;;;;;;;28.94;28.78;92743.13;5045234;28;20045;-75
2023/07/26 02:43:16;;;;;;;15.82;6.50;;;;;;;28.93;27.66;92763.50;5051472;28;20344;-75
2023/07/26 02:45:42;;;;;;;18.23;6.50;;;;;;;28.90;29.25;92731.56;5045146;28;20047;-75
2023/07/26 02:48:08;;;;;;;16.40;7.20;;;;;;;28.93;30.48;92755.31;5050833;28;20415;-75
2023/07/26 02:50:34;;;;;;;20.63;6.90;;;;;;;28.53;29.76;92746.41;5046120;28;20641;-75
2023/07/26 02:52:59;;;;;;;16.33;6.40;;;;;;;28.71;30.74;92737.47;5044005;28;20037;-76
2023/07/26 02:55:25;;;;;;;19.67;6.82;;;;;;;28.63;31.61;92772.56;5045903;28;20141;-76
2023/07/26 02:57:51;;;;;;;16.48;6.22;;;;;;;28.64;31.77;92758.47;5047925;28;20052;-76
2023/07/26 03:00:16;;;;;;;16.30;7.13;;;;;;;28.58;32.89;92779.38;5044415;28;20044;-75
2023/07/26 03:02:42;;;;;;;12.23;7.07;;;;;;;28.53;33.89;92796.38;5044256;28;20078;-76
2023/07/26 03:05:08;;;;;;;16.83;7.07;;;;;;;28.23;34.86;92789.75;5045142;28;20021;-75
2023/07/26 03:07:34;;;;;;;13.45;7.55;;;;;;;28.21;35.59;92792.16;5044441;28;20127;-75
2023/07/26 03:09:59;;;;;;;17.85;8.35;;;;;;;28.26;36.48;92809.94;5046518;28;20045;-74
2023/07/26 03:12:24;;;;;;;14.32;7.28;;;;;;;28.21;37.09;92816.78;5048290;28;20162;-75
2023/07/26 03:14:50;;;;;;;15.63;6.95;;;;;;;27.93;37.39;92792.47;5047234;28;20615;-76
2023/07/26 03:17:16;;;;;;;16.20;7.85;;;;;;;27.93;37.28;92793.22;5052834;28;20020;-75
2023/07/26 03:19:41;;;;;;;16.90;7.03;;;;;;;27.92;37.88;92796.41;5045247;28;20045;-75
2023/07/26 03:22:06;;;;;;;15.88;7.07;;;;;;;27.77;37.51;92807.09;5047751;28;20112;-75
2023/07/26 03:24:32;;;;;;;17.90;8.30;;;;;;;27.79;37.23;92800.00;5048303;28;20041;-72
2023/07/26 03:26:57;;;;;;;14.27;6.53;;;;;;;27.53;38.06;92814.19;5050764;28;20522;-72
2023/07/26 03:29:22;;;;;;;15.02;7.45;;;;;;;27.52;37.84;92802.50;5046507;28;20029;-73
2023/07/26 03:31:48;;;;;;;18.70;7.80;;;;;;;27.50;38.02;92798.72;5048685;28;20044;-73
2023/07/26 03:34:13;;;;;;;13.95;7.22;;;;;;;27.42;38.55;92790.03;5046124;28;20404;-73
2023/07/26 03:36:39;;;;;;;12.80;7.25;;;;;;;27.46;38.25;92830.84;5049128;28;20059;-74
2023/07/26 03:39:04;;;;;;;19.40;7.72;;;;;;;27.10;39.15;92793.09;5043410;28;20450;-73
2023/07/26 03:41:30;;;;;;;11.65;6.55;;;;;;;27.20;39.19;92832.91;5052157;28;20032;-74
2023/07/26 03:43:55;;;;;;;16.63;7.32;;;;;;;27.14;39.24;92821.78;5045721;28;20577;-72
2023/07/26 03:46:21;;;;;;;19.60;6.60;;;;;;;27.07;39.51;92808.41;5047451;28;20169;-74
2023/07/26 03:48:46;;;;;;;16.08;7.10;;;;;;;27.08;39.80;92818.13;5045365;28;21329;-74
2023/07/26 03:51:11;;;;;;;13.57;7.57;;;;;;;27.02;39.36;92822.59;5055795;28;20488;-73
2023/07/26 03:53:37;;;;;;;13.77;8.00;;;;;;;27.02;39.52;92825.34;5045192;28;20029;-73
2023/07/26 03:56:02;;;;;;;13.68;6.93;;;;;;;26.94;40.16;92816.56;5047777;28;20036;-73
2023/07/26 03:58:28;;;;;;;15.05;7.95;;;;;;;26.85;39.91;92832.09;5046796;28;20040;-74
2023/07/26 04:00:53;;;;;;;17.10;8.00;;;;;;;26.77;39.63;92809.75;5049011;28;20334;-73
2023/07/26 04:03:19;;;;;;;17.15;7.97;;;;;;;26.78;40.39;92832.34;5046858;28;20040;-73
2023/07/26 04:05:44;;;;;;;21.25;8.05;;;;;;;26.74;40.92;92834.44;5047209;28;20044;-74
2023/07/26 04:08:10;;;;;;;16.10;7.75;;;;;;;26.62;40.85;92824.28;5049416;28;20506;-74
2023/07/26 04:10:36;;;;;;;15.57;7.80;;;;;;;26.74;40.83;92842.59;5045774;28;20136;-74
2023/07/26 04:13:02;;;;;;;16.85;7.53;;;;;;;26.65;41.06;92850.66;5048968;28;20398;-73
2023/07/26 04:15:29;;;;;;;16.80;7.75;;;;;;;26.53;41.15;92820.28;5050321;28;20041;-73
2023/07/26 04:17:54;;;;;;;16.27;8.10;;;;;;;26.55;42.17;92831.50;5045744;28;20227;-74
2023/07/26 04:20:20;;;;;;;13.70;6.63;;;;;;;26.61;41.98;92861.69;5048235;28;20051;-74
2023/07/26 04:22:45;;;;;;;19.77;7.72;;;;;;;26.55;41.78;92841.63;5047010;28;20037;-73
2023/07/26 04:25:11;;;;;;;15.65;7.53;;;;;;;26.59;42.24;92847.75;5046907;28;20047;-72
2023/07/26 04:27:36;;;;;;;17.67;8.75;;;;;;;26.61;41.99;92845.34;5046991;28;20041;-73
2023/07/26 04:30:03;;;;;;;41.67;9.27;;;;;;;26.58;43.31;92837.28;5044513;28;20052;-73
2023/07/26 04:32:28;;;;;;;13.90;7.80;;;;;;;26.63;43.28;92842.19;5048347;28;20021;-73
2023/07/26 04:34:53;;;;;;;18.90;7.57;;;;;;;26.55;43.40;92804.22;5066499;28;20549;-74
2023/07/26 04:37:19;;;;;;;16.60;7.75;;;;;;;26.71;42.92;92827.09;5067994;28;20057;-73
2023/07/26 04:39:47;;;;;;;14.55;7.93;;;;;;;26.79;43.12;92826.44;5065606;28;20036;-72
2023/07/26 04:42:13;;;;;;;15.20;7.40;;;;;;;26.75;42.49;92828.50;5068908;28;20035;-73
2023/07/26 04:44:38;;;;;;;15.27;7.82;;;;;;;26.79;43.45;92812.06;5063613;28;20035;-73
2023/07/26 04:47:04;;;;;;;17.13;7.50;;;;;;;26.82;42.98;92808.44;5067679;28;20032;-75
2023/07/26 04:49:29;;;;;;;15.38;7.32;;;;;;;26.92;41.54;92810.06;5065080;28;20391;-74
2023/07/26 04:51:55;;;;;;;14.52;7.57;;;;;;;26.90;41.36;92807.75;5074812;28;20067;-74
2023/07/26 04:54:20;;;;;;;18.85;7.60;;;;;;;27.03;41.78;92788.66;5064986;28;20040;-73
2023/07/26 04:56:45;;;;;;;20.88;7.57;;;;;;;27.15;41.65;92817.84;5068998;28;20142;-73
2023/07/26 04:59:11;;;;;;;20.42;8.10;;;;;;;27.18;41.30;92800.59;5069825;28;20024;-75
2023/07/26 05:01:36;;;;;;;22.92;8.02;;;;;;;27.23;40.79;92813.66;5068245;28;20534;-73
2023/07/26 05:04:02;;;;;;;14.23;7.15;;;;;;;27.30;40.78;92802.50;5067769;28;20482;-73
2023/07/26 05:06:29;;;;;;;14.57;7.03;;;;;;;27.40;40.93;92817.75;5068652;28;20036;-74
2023/07/26 05:08:55;;;;;;;18.02;7.95;;;;;;;27.45;40.91;92813.69;5063814;28;20575;-74
2023/07/26 05:11:22;;;;;;;24.30;7.82;;;;;;;27.58;40.63;92800.00;5066519;28;20048;-74
2023/07/26 05:13:49;;;;;;;18.00;8.20;;;;;;;27.67;40.77;92808.25;5077974;28;20565;-74
2023/07/26 05:16:14;;;;;;;13.50;7.68;;;;;;;27.70;39.73;92808.13;5065329;28;20097;-73
2023/07/26 05:18:40;;;;;;;16.20;8.52;;;;;;;27.66;40.40;92784.91;5069201;28;20500;-73
2023/07/26 05:21:05;;;;;;;25.27;7.70;;;;;;;27.79;40.75;92791.03;5063887;28;20638;-73
2023/07/26 05:23:30;;;;;;;15.30;7.50;;;;;;;27.81;40.90;92785.91;5066173;28;20024;-73
2023/07/26 05:25:56;;;;;;;18.45;8.48;;;;;;;27.95;41.42;92796.28;5068111;28;20067;-73
2023/07/26 05:28:21;;;;;;;16.50;7.93;;;;;;;27.94;40.54;92811.16;5064665;28;20510;-74
2023/07/26 05:30:46;;;;;;;19.65;9.02;;;;;;;27.90;40.69;92798.84;5066908;28;20155;-74
2023/07/26 05:33:12;;;;;;;13.52;7.85;;;;;;;27.94;40.93;92816.63;5064871;28;20486;-73
2023/07/26 05:35:40;;;;;;;17.27;8.85;;;;;;;27.98;40.30;92825.44;5069552;28;20044;-74
2023/07/26 05:38:06;;;;;;;19.60;9.13;;;;;;;27.92;41.19;92788.97;5062285;28;20567;-73
2023/07/26 05:40:32;;;;;;;17.65;8.75;;;;;;;28.02;41.14;92836.22;5067979;28;20047;-74
2023/07/26 05:42:57;;;;;;;18.52;8.43;;;;;;;28.01;39.91;92810.88;5064133;28;20473;-73
2023/07/26 05:45:23;;;;;;;19.85;7.95;;;;;;;28.04;40.56;92815.47;5067049;28;20127;-73
2023/07/26 05:47:48;;;;;;;18.05;8.20;;;;;;;27.93;41.44;92797.94;5063804;28;20059;-74
2023/07/26 05:50:14;;;;;;;22.17;9.25;;;;;;;27.81;41.77;92774.97;5064720;28;20117;-74
2023/07/26 05:52:40;;;;;;;17.48;8.90;;;;;;;27.98;41.79;92795.38;5066517;28;20503;-74
2023/07/26 05:55:06;;;;;;;17.00;8.02;;;;;;;28.04;41.49;92804.53;5065947;28;20132;-74
2023/07/26 05:57:31;;;;;;;16.10;9.23;;;;;;;27.98;41.60;92794.63;5067741;28;20143;-73
2023/07/26 05:59:57;;;;;;;15.82;8.73;;;;;;;28.04;41.80;92795.56;5066991;28;20039;-73
2023/07/26 06:02:22;;;;;;;17.70;8.90;;;;;;;27.98;41.55;92781.72;5066510;28;20031;-74
2023/07/26 06:04:48;;;;;;;18.92;8.55;;;;;;;27.90;41.80;92771.50;5065291;28;20517;-73
2023/07/26 06:07:15;;;;;;;16.35;8.95;;;;;;;27.95;42.60;92793.56;5066444;28;20154;-74
2023/07/26 06:09:41;;;;;;;19.33;7.63;;;;;;;27.93;42.17;92771.38;5062942;28;20465;-73
2023/07/26 06:12:06;;;;;;;16.65;8.95;;;;;;;27.83;42.90;92794.38;5065747;28;20339;-73
2023/07/26 06:14:32;;;;;;;21.88;8.98;;;;;;;27.70;41.52;92780.06;5061674;28;20490;-74
2023/07/26 06:16:58;;;;;;;17.85;8.23;;;;;;;27.55;40.25;92785.25;5066650;28;20032;-74
2023/07/26 06:19:24;;;;;;;23.83;8.82;;;;;;;27.49;40.98;92751.53;5064725;28;20048;-74
2023/07/26 06:21:50;;;;;;;18.95;8.52;;;;;;;27.68;41.24;92785.19;5068313;28;20097;-73
2023/07/26 06:24:15;;;;;;;24.20;8.73;;;;;;;27.76;40.89;92767.34;5066889;28;20048;-73
2023/07/26 06:26:41;;;;;;;21.80;8.35;;;;;;;27.83;40.49;92783.47;5063618;28;20032;-73
2023/07/26 06:29:06;;;;;;;25.38;8.45;;;;;;;27.80;41.17;92767.97;5067780;28;20029;-74
2023/07/26 06:31:32;;;;;;;19.58;7.90;;;;;;;27.90;40.65;92783.22;5064909;28;20094;-73
2023/07/26 06:33:57;;;;;;;17.15;8.18;;;;;;;27.75;39.10;92774.03;5065291;28;20028;-73
2023/07/26 06:36:22;;;;;;;18.90;9.23;;;;;;;27.99;39.54;92801.59;5064521;28;20097;-74
2023/07/26 06:38:48;;;;;;;22.83;9.10;;;;;;;28.05;38.58;92751.41;5067825;28;20120;-73
2023/07/26 06:41:13;;;;;;;28.42;7.72;;;;;;;28.10;38.72;92764.50;5061243;28;20826;-74
2023/07/26 06:43:38;;;;;;;24.05;8.23;;;;;;;28.13;36.34;92763.59;5066906;28;20628;-73
2023/07/26 06:46:04;;;;;;;23.10;8.80;;;;;;;28.29;36.71;92770.03;5076211;28;20140;-73
2023/07/26 06:48:29;;;;;;;25.63;8.15;;;;;;;28.35;34.57;92776.44;5064023;28;20052;-72
2023/07/26 06:50:55;;;;;;;20.73;6.35;;;;;;;28.44;33.13;92771.00;5069207;28;20072;-73
2023/07/26 06:53:20;;;;;;;22.80;7.55;;;;;;;28.56;30.84;92767.38;5068415;28;20040;-71
2023/07/26 06:55:45;;;;;;;16.05;7.38;;;;;;;28.56;30.48;92759.16;5069563;28;20119;-71
2023/07/26 06:58:11;;;;;;;21.70;7.00;;;;;;;28.83;30.37;92764.72;5069578;28;20040;-72
2023/07/26 07:00:36;;;;;;;24.48;8.65;;;;;;;28.81;30.42;92750.72;5067991;28;20043;-72
2023/07/26 07:03:03;;;;;;;17.42;6.70;;;;;;;29.00;29.51;92759.69;5067720;28;20450;-71
2023/07/26 07:05:30;;;;;;;22.95;6.78;;;;;;;29.01;28.42;92764.72;5069906;28;20062;-72
2023/07/26 07:07:56;;;;;;;21.38;6.00;;;;;;;28.90;28.49;92764.41;5067983;28;20038;-72
2023/07/26 07:10:22;;;;;;;17.27;6.45;;;;;;;29.04;26.82;92747.38;5066965;28;20448;-72
2023/07/26 07:12:48;;;;;;;16.88;6.43;;;;;;;29.06;27.47;92757.88;5065541;28;20891;-71
2023/07/26 07:15:14;;;;;;;28.88;7.22;;;;;;;29.07;26.00;92756.66;5065177;28;20036;-72
2023/07/26 07:17:40;;;;;;;21.70;6.00;;;;;;;29.23;27.30;92755.63;5072145;28;20024;-72
2023/07/26 07:20:07;;;;;;;20.65;6.70;;;;;;;29.18;27.56;92756.25;5068986;28;20030;-72
2023/07/26 07:22:33;;;;;;;22.98;7.10;;;;;;;29.28;27.60;92765.97;5068482;28;20038;-71
2023/07/26 07:24:58;;;;;;;22.42;6.55;;;;;;;29.08;27.46;92748.00;5067090;28;20028;-72
2023/07/26 07:27:24;;;;;;;18.98;7.80;;;;;;;29.31;29.36;92773.28;5068313;28;20067;-71
2023/07/26 07:29:50;;;;;;;25.48;6.82;;;;;;;29.43;27.38;92769.59;5066916;28;20100;-75
2023/07/26 07:32:16;;;;;;;21.25;6.97;;;;;;;29.57;27.23;92769.00;5068864;28;20036;-74
2023/07/26 07:34:42;;;;;;;27.27;7.03;;;;;;;29.40;27.94;92765.03;5067473;28;20612;-74
2023/07/26 07:37:07;;;;;;;15.68;6.10;;;;;;;29.53;29.53;92771.88;5080948;28;20033;-73
2023/07/26 07:39:33;;;;;;;14.40;6.55;;;;;;;29.58;28.38;92775.19;5067230;28;20040;-74
2023/07/26 07:41:59;;;;;;;21.85;6.10;;;;;;;29.69;29.80;92768.06;5066948;28;20516;-76
2023/07/26 07:44:26;;;;;;;22.05;7.88;;;;;;;29.57;29.82;92776.44;5069010;28;20031;-74
2023/07/26 07:46:52;;;;;;;26.67;8.00;;;;;;;29.40;30.12;92740.41;5068628;28;20033;-73
2023/07/26 07:49:17;;;;;;;22.02;6.35;;;;;;;29.64;30.45;92757.69;5067369;28;20390;-73
2023/07/26 07:51:42;;;;;;;29.38;7.63;;;;;;;29.65;29.64;92772.16;5065879;28;20121;-73
2023/07/26 07:54:08;;;;;;;19.27;6.25;;;;;;;29.58;29.28;92761.50;5066851;28;20039;-73
2023/07/26 07:56:33;;;;;;;25.58;8.38;;;;;;;29.64;28.47;92776.88;5071386;28;20029;-72
2023/07/26 07:58:58;;;;;;;31.73;7.53;;;;;;;29.50;29.04;92781.00;5066164;28;20878;-74
2023/07/26 08:01:24;;;;;;;18.00;7.60;;;;;;;29.55;29.46;92763.19;5067717;28;20056;-73
2023/07/26 08:03:49;;;;;;;19.13;6.85;;;;;;;29.58;29.91;92767.75;5067447;28;20899;-73
2023/07/26 08:06:15;;;;;;;19.95;7.28;;;;;;;29.71;29.83;92773.88;5067500;28;20127;-72
2023/07/26 08:08:40;;;;;;;14.40;7.03;;;;;;;29.73;29.25;92774.16;5066155;28;20040;-73
2023/07/26 08:11:06;;;;;;;23.02;7.18;;;;;;;29.79;28.57;92780.53;5065364;28;20052;-73
2023/07/26 08:13:33;;;;;;;20.73;6.45;;;;;;;29.84;30.60;92768.19;5066983;28;20398;-74
2023/07/26 08:15:58;;;;;;;26.88;6.07;;;;;;;29.95;28.28;92787.66;5067064;28;20430;-73
2023/07/26 08:18:24;;;;;;;15.55;5.70;;;;;;;29.93;27.13;92771.66;5065870;28;20064;-73
2023/07/26 08:20:49;;;;;;;32.75;6.60;;;;;;;29.99;27.55;92758.09;5065322;28;20120;-73
2023/07/26 08:23:14;;;;;;;21.67;5.80;;;;;;;29.81;28.20;92769.88;5065286;28;20027;-72
2023/07/26 08:25:40;;;;;;;22.90;5.38;;;;;;;29.69;27.23;92779.03;5065759;28;20040;-73
2023/07/26 08:28:06;;;;;;;19.10;4.90;;;;;;;29.78;27.23;92761.81;5065490;28;20530;-73
2023/07/26 08:30:31;;;;;;;35.63;8.50;;;;;;;29.71;26.64;92773.09;5065940;28;20151;-73
2023/07/26 08:32:57;;;;;;;21.20;6.60;;;;;;;29.74;26.15;92753.75;5065102;28;20618;-73
2023/07/26 08:35:23;;;;;;;17.10;5.32;;;;;;;29.73;26.38;92752.22;5066871;28;21054;-73
2023/07/26 08:37:48;;;;;;;16.35;5.05;;;;;;;29.86;25.81;92749.31;5073488;28;20413;-73
2023/07/26 08:40:14;;;;;;;12.65;5.97;;;;;;;29.79;26.30;92761.34;5064817;28;20326;-74
2023/07/26 08:42:39;;;;;;;33.13;7.00;;;;;;;29.72;26.27;92761.66;5065683;28;20498;-72
2023/07/26 08:45:06;;;;;;;14.65;5.03;;;;;;;29.73;26.53;92768.66;5066463;28;20404;-73
2023/07/26 08:47:34;;;;;;;17.00;5.82;;;;;;;29.77;25.77;92769.25;5052582;28;20028;-73
2023/07/26 08:49:59;;;;;;;19.15;4.93;;;;;;;29.72;25.85;92767.13;5066458;28;20060;-73
2023/07/26 08:52:25;;;;;;;18.02;5.10;;;;;;;29.68;25.57;92752.84;5064330;28;20167;-73
2023/07/26 08:54:52;;;;;;;16.63;5.20;;;;;;;29.73;25.77;92767.91;5065019;28;20395;-73
2023/07/26 08:57:18;;;;;;;19.58;4.38;;;;;;;29.75;25.38;92760.75;5065961;28;20033;-74
2023/07/26 08:59:44;;;;;;;20.83;5.20;;;;;;;29.76;25.38;92762.28;5079311;28;20374;-74
2023/07/26 09:02:11;;;;;;;11.88;4.22;;;;;;;29.84;24.95;92758.00;5066533;28;20027;-73
2023/07/26 09:04:36;;;;;;;18.65;5.93;;;;;;;29.81;25.53;92771.88;5068042;28;20491;-73
2023/07/26 09:07:06;;;;;;;16.38;4.70;;;;;;;29.84;25.17;92758.00;5064386;28;20040;-73
2023/07/26 09:09:33;;;;;;;15.73;5.82;;;;;;;29.87;24.53;92772.75;5065637;28;20415;-73
2023/07/26 09:11:58;;;;;;;16.52;5.45;;;;;;;29.79;24.58;92761.34;5065794;28;20095;-74
2023/07/26 09:14:28;;;;;;;15.55;5.07;;;;;;;29.83;25.01;92788.59;5066636;28;20115;-73
2023/07/26 09:16:58;;;;;;;19.77;4.88;;;;;;;29.81;24.67;92785.56;5065721;28;20087;-73
2023/07/26 09:19:33;;;;;;;17.73;5.03;;;;;;;29.83;24.76;92789.34;5063515;28;20402;-73
2023/07/26 09:22:01;;;;;;;16.85;4.55;;;;;;;29.88;24.91;92774.25;5062604;28;20044;-74
2023/07/26 09:24:34;;;;;;;14.98;5.47;;;;;;;29.87;24.35;92784.47;5066836;28;20032;-74
2023/07/26 09:27:19;;;;;;;12.85;5.03;;;;;;;29.93;25.12;92792.81;5065199;28;20517;-74
2023/07/26 09:29:56;;;;;;;16.20;3.85;;;;;;;29.78;25.42;92770.78;5061499;28;20032;-75
2023/07/26 09:32:29;;;;;;;16.63;5.28;;;;;;;30.03;25.16;92785.34;5065719;28;20127;-73
2023/07/26 09:34:59;;;;;;;20.45;5.18;;;;;;;30.11;25.64;92786.53;5063865;28;20383;-74
2023/07/26 09:37:25;;;;;;;21.98;6.32;;;;;;;30.03;26.15;92804.53;5064598;28;20119;-74
2023/07/26 09:39:51;;;;;;;17.02;4.97;;;;;;;30.02;25.95;92795.53;5065333;28;20378;-74
2023/07/26 09:42:17;;;;;;;19.42;5.25;;;;;;;30.12;26.49;92799.78;5066781;28;20385;-73
2023/07/26 09:44:45;;;;;;;19.58;5.13;;;;;;;30.16;26.34;92794.88;5063863;28;20077;-73
2023/07/26 09:47:11;;;;;;;11.20;5.43;;;;;;;30.27;26.71;92799.91;5066980;28;20470;-73
2023/07/26 09:49:49;;;;;;;25.50;6.28;;;;;;;30.34;26.72;92794.09;5062917;28;20047;-73
2023/07/26 09:52:19;;;;;;;21.38;6.15;;;;;;;30.27;25.89;92821.84;5063141;28;20036;-73
2023/07/26 09:54:46;;;;;;;25.88;5.53;;;;;;;30.19;26.99;92804.19;5065858;28;20506;-73
2023/07/26 09:57:15;;;;;;;17.85;5.75;;;;;;;30.32;25.62;92796.53;5066100;28;20559;-73
2023/07/26 09:59:40;;;;;;;16.95;5.95;;;;;;;30.35;26.45;92790.13;5065192;28;20462;-73
2023/07/26 10:02:11;;;;;;;24.08;5.35;;;;;;;30.27;26.55;92784.22;5065952;28;20107;-73
2023/07/26 10:04:49;;;;;;;14.75;5.88;;;;;;;30.41;26.80;92782.00;5066881;28;20060;-73
2023/07/26 10:07:15;;;;;;;19.25;4.90;;;;;;;30.37;26.57;92787.66;5065370;28;20036;-74
2023/07/26 10:09:46;;;;;;;19.80;5.28;;;;;;;30.36;26.68;92797.13;5062289;28;20044;-74
2023/07/26 10:12:12;;;;;;;13.25;5.00;;;;;;;30.38;27.06;92780.97;5072191;28;20105;-73
2023/07/26 10:14:38;;;;;;;11.55;5.00;;;;;;;30.40;27.78;92769.53;5061184;28;20546;-74
2023/07/26 10:17:05;;;;;;;13.60;5.18;;;;;;;30.58;26.59;92789.41;5068005;28;20029;-74
2023/07/26 10:19:31;;;;;;;15.90;5.30;;;;;;;30.63;27.12;92782.53;5062952;28;20506;-74
2023/07/26 10:21:57;;;;;;;15.30;4.65;;;;;;;30.60;26.36;92767.00;5063782;28;20044;-74
2023/07/26 10:24:24;;;;;;;12.18;4.70;;;;;;;30.63;25.40;92777.78;5064878;28;20036;-74
2023/07/26 10:26:51;;;;;;;16.25;5.50;;;;;;;30.62;25.04;92781.75;5067480;28;20031;-73
2023/07/26 10:29:17;;;;;;;17.50;4.88;;;;;;;30.52;24.96;92788.50;5066008;28;20570;-73
2023/07/26 10:31:44;;;;;;;13.38;4.75;;;;;;;30.48;25.63;92778.94;5065096;28;20044;-74
2023/07/26 10:34:18;;;;;;;10.05;4.80;;;;;;;30.59;25.95;92776.44;5065513;28;20834;-73
2023/07/26 10:36:43;;;;;;;16.85;4.18;;;;;;;30.53;24.21;92765.34;5060878;28;20487;-73
2023/07/26 10:39:09;;;;;;;20.17;5.22;;;;;;;30.52;24.79;92772.06;5064507;28;20043;-73
2023/07/26 10:41:35;;;;;;;10.77;4.78;;;;;;;30.51;24.31;92773.28;5062050;28;20390;-74
2023/07/26 10:44:08;;;;;;;13.88;4.95;;;;;;;30.49;24.55;92764.78;5065209;28;20047;-74
2023/07/26 10:46:46;;;;;;;14.18;5.68;;;;;;;30.58;24.48;92753.75;5077351;28;20044;-74
2023/07/26 10:49:17;;;;;;;14.77;4.80;;;;;;;30.48;25.01;92754.25;5063529;28;20059;-73
2023/07/26 10:52:09;;;;;;;20.60;5.28;;;;;;;30.59;24.63;92755.25;5064761;28;20037;-74
2023/07/26 10:54:41;;;;;;;17.33;5.07;;;;;;;30.56;24.98;92736.97;5062098;28;20047;-73
2023/07/26 10:57:21;;;;;;;15.73;3.85;;;;;;;30.69;25.24;92754.03;5064159;28;20124;-73
2023/07/26 10:59:58;;;;;;;12.13;4.47;;;;;;;30.67;25.42;92748.22;5071014;28;20028;-73
2023/07/26 11:02:42;;;;;;;21.35;4.70;;;;;;;30.74;25.00;92755.34;5073771;28;20017;-73
2023/07/26 11:05:17;;;;;;;11.67;4.07;;;;;;;30.76;25.29;92739.16;5064845;28;20892;-73
2023/07/26 11:07:51;;;;;;;14.02;4.78;;;;;;;30.77;25.76;92737.94;5064270;28;20322;-73
2023/07/26 11:10:24;;;;;;;12.18;4.55;;;;;;;30.79;25.14;92751.97;5064182;28;20079;-73
2023/07/26 11:13:11;;;;;;;15.35;4.90;;;;;;;30.68;25.14;92733.28;5069124;28;20460;-75
2023/07/26 11:15:41;;;;;;;12.45;3.95;;;;;;;30.66;25.52;92748.66;5065661;28;20047;-72
2023/07/26 11:18:08;;;;;;;16.50;4.97;;;;;;;30.72;25.87;92744.84;5082098;28;20032;-73
2023/07/26 11:20:37;;;;;;;19.75;5.65;;;;;;;30.80;25.97;92742.50;5073060;28;20055;-71
2023/07/26 11:23:14;;;;;;;13.75;5.68;;;;;;;30.88;26.18;92742.91;5062977;28;20056;-74